createdAt,value
2018-07-14T20:01:48.567Z,3.57
2018-07-14T20:04:16.929Z,3.50
2018-07-14T20:06:45.225Z,3.47
2018-07-14T20:09:13.714Z,3.20
2018-07-14T20:11:42.185Z,3.70
2018-07-14T20:14:10.595Z,3.67
2018-07-14T20:16:38.957Z,3.77
2018-07-14T20:19:07.436Z,3.97
2018-07-14T20:21:36.012Z,3.83
2018-07-14T20:24:04.574Z,3.93
2018-07-14T20:26:33.048Z,4.40
2018-07-14T20:29:07.217Z,4.37
2018-07-14T20:31:35.587Z,4.67
2018-07-14T20:34:03.936Z,4.50
2018-07-14T20:36:32.227Z,4.60
2018-07-14T20:39:00.726Z,4.13
2018-07-14T20:41:29.245Z,4.50
2018-07-14T20:43:57.453Z,4.70
2018-07-14T20:46:26.032Z,4.77
2018-07-14T20:48:54.338Z,5.47
2018-07-14T20:51:22.790Z,4.70
2018-07-14T20:53:51.301Z,4.20
2018-07-14T20:56:19.709Z,4.73
2018-07-14T20:58:48.051Z,4.27
2018-07-14T21:01:16.421Z,4.97
2018-07-14T21:03:44.792Z,4.70
2018-07-14T21:06:13.132Z,4.80
2018-07-14T21:08:41.190Z,4.53
2018-07-14T21:11:09.631Z,4.80
2018-07-14T21:13:38.137Z,4.73
2018-07-14T21:16:06.472Z,4.73
2018-07-14T21:18:34.784Z,5.60
2018-07-14T21:21:03.297Z,4.03
2018-07-14T21:23:31.626Z,4.67
2018-07-14T21:26:00.038Z,5.50
2018-07-14T21:28:29.599Z,4.77
2018-07-14T21:30:57.888Z,4.47
2018-07-14T21:33:26.432Z,4.87
2018-07-14T21:35:54.826Z,5.60
2018-07-14T21:38:23.268Z,5.20
2018-07-14T21:40:51.961Z,5.20
2018-07-14T21:43:20.403Z,5.27
2018-07-14T21:45:48.924Z,5.30
2018-07-14T21:48:17.264Z,5.63
2018-07-14T21:50:46.021Z,5.37
2018-07-14T21:53:14.571Z,5.13
2018-07-14T21:55:42.890Z,5.27
2018-07-14T21:58:11.188Z,5.03
2018-07-14T22:00:45.125Z,5.33
2018-07-14T22:03:14.327Z,5.23
2018-07-14T22:05:42.741Z,5.43
2018-07-14T22:08:11.708Z,5.70
2018-07-14T22:10:40.312Z,5.90
2018-07-14T22:13:08.767Z,5.37
2018-07-14T22:15:37.113Z,5.57
2018-07-14T22:18:05.623Z,5.83
2018-07-14T22:20:34.085Z,5.87
2018-07-14T22:23:02.666Z,5.90
2018-07-14T22:25:31.132Z,5.73
2018-07-14T22:27:59.668Z,6.10
2018-07-14T22:30:28.025Z,5.80
2018-07-14T22:32:56.991Z,5.60
2018-07-14T22:35:25.403Z,5.90
2018-07-14T22:37:53.864Z,5.60
2018-07-14T22:40:22.316Z,5.80
2018-07-14T22:42:50.610Z,5.80
2018-07-14T22:45:19.081Z,5.90
2018-07-14T22:47:47.151Z,6.33
2018-07-14T22:50:15.840Z,6.40
2018-07-14T22:52:44.532Z,6.13
2018-07-14T22:55:13.035Z,6.40
2018-07-14T22:57:41.473Z,6.00
2018-07-14T23:00:10.889Z,6.33
2018-07-14T23:02:39.275Z,6.50
2018-07-14T23:05:07.874Z,6.30
2018-07-14T23:07:36.270Z,6.50
2018-07-14T23:10:04.867Z,7.43
2018-07-14T23:12:33.235Z,7.13
2018-07-14T23:15:01.728Z,7.20
2018-07-14T23:17:30.172Z,6.30
2018-07-14T23:19:58.297Z,6.43
2018-07-14T23:22:26.798Z,6.37
2018-07-14T23:24:55.197Z,6.70
2018-07-14T23:27:23.809Z,5.93
2018-07-14T23:29:52.285Z,6.50
2018-07-14T23:32:20.759Z,6.50
2018-07-14T23:34:49.237Z,6.07
2018-07-14T23:37:17.692Z,5.70
2018-07-14T23:39:46.004Z,6.73
2018-07-14T23:42:14.566Z,6.10
2018-07-14T23:44:43.019Z,6.97
2018-07-14T23:47:11.427Z,6.73
2018-07-14T23:49:39.816Z,6.97
2018-07-14T23:52:09.278Z,7.30
2018-07-14T23:54:37.703Z,7.17
2018-07-14T23:57:06.511Z,6.97
2018-07-14T23:59:35.535Z,6.53
